Aviation Digital Data Service (ADDS)

Output produced by METARs form (0015 UTC 30 May 2020)
found at http://www.aviationweather.gov/metar/data/
 
METAR text: LFMY 300000Z AUTO 10005KT 070V130 CAVOK 14/10 Q1019
Conditions at: LFMY (SALON (FAFB) , FR) observed 0000 UTC 30 May 2020
Temperature: 14.0°C (57°F)
Dewpoint: 10.0°C (50°F) [RH = 77%]
Pressure (altimeter): 30.09 inches Hg (1019.0 mb)
Winds: from the E (100 degrees) at 6 MPH (5 knots; 2.6 m/s)
Visibility: 6 or more miles (10+ km)
Ceiling: ceiling and visibility are OK
Clouds: unknown
Weather: no significant weather observed at this time

METAR text: LFMY 292330Z AUTO 09005KT CAVOK 15/11 Q1019
Conditions at: LFMY (SALON (FAFB) , FR) observed 2330 UTC 29 May 2020
Temperature: 15.0°C (59°F)
Dewpoint: 11.0°C (52°F) [RH = 77%]
Pressure (altimeter): 30.09 inches Hg (1019.0 mb)
Winds: from the E (90 degrees) at 6 MPH (5 knots; 2.6 m/s)
Visibility: 6 or more miles (10+ km)
Ceiling: ceiling and visibility are OK
Clouds: unknown
Weather: no significant weather observed at this time

Forecast for: LFMY (SALON (FAFB) , FR)
Text: TAF LFMY 291400Z 2915/3015 19012KT 9999 SCT040
Forecast period: 1500 to 1700 UTC 29 May 2020
Forecast type: FROM: standard forecast or significant change
Winds: from the S (190 degrees) at 14 MPH (12 knots; 6.2 m/s)
Visibility: 6 or more miles 10+ km)
Ceiling: at least 12,000 feet AGL
Clouds: scattered clouds at 4000 feet AGL
Weather: no significant weather forecast for this period
Text: TEMPO 2915/2917 2000 TSRA SCT030CB
Forecast period: 1500 to 1700 UTC 29 May 2020
Forecast type: TEMPORARY: The following changes expected for less than half the time period
Visibility: 1.24 miles (2.00 km)
Ceiling: at least 12,000 feet AGL
Clouds: scattered clouds at 3000 feet AGL
Weather: TSRA  (rain associated with thunderstorm(s))
Text: BECMG 2917/2919 10005KT
Forecast period: 1700 UTC 29 May 2020 to 0900 UTC 30 May 2020
Forecast type: BECOMING: Conditions expected to become as follows by 1900 UTC 29 May 2020
Winds: from the E (100 degrees) at 6 MPH (5 knots; 2.6 m/s)
Visibility: 6 or more miles 10+ km)
Ceiling: at least 12,000 feet AGL
Clouds: scattered clouds at 4000 feet AGL
Weather: no significant weather forecast for this period
Text: BECMG 3009/3011 20012KT
Forecast period: 0900 to 1500 UTC 30 May 2020
Forecast type: BECOMING: Conditions expected to become as follows by 1100 UTC 30 May 2020
Winds: from the SSW (200 degrees) at 14 MPH (12 knots; 6.2 m/s)
Visibility: 6 or more miles 10+ km)
Ceiling: at least 12,000 feet AGL
Clouds: scattered clouds at 4000 feet AGL
Weather: no significant weather forecast for this period